createdAt,value
2023-05-06T00:00:30.623Z,101256.81
2023-05-06T00:03:00.318Z,101261.84
2023-05-06T00:05:28.970Z,101262.81
2023-05-06T00:07:56.587Z,101267.44
2023-05-06T00:10:24.090Z,101268.78
2023-05-06T00:12:51.659Z,101271.56
2023-05-06T00:15:19.140Z,101268.72
2023-05-06T00:17:46.553Z,101272.44
2023-05-06T00:20:14.960Z,101273.09
2023-05-06T00:22:42.370Z,101281.25
2023-05-06T00:25:10.378Z,101283.00
2023-05-06T00:27:38.823Z,101275.66
2023-05-06T00:30:06.764Z,101280.66
2023-05-06T00:32:34.277Z,101288.97
2023-05-06T00:35:01.644Z,101297.25
2023-05-06T00:37:29.491Z,101295.78
2023-05-06T00:39:56.933Z,101284.97
2023-05-06T00:42:24.401Z,101294.38
2023-05-06T00:44:51.917Z,101289.09
2023-05-06T00:47:21.208Z,101290.41
2023-05-06T00:49:50.888Z,101288.06
2023-05-06T00:52:20.001Z,101287.41
2023-05-06T00:54:47.500Z,101296.53
2023-05-06T00:57:15.065Z,101295.88
2023-05-06T00:59:42.590Z,101301.00
2023-05-06T01:02:10.000Z,101297.09
2023-05-06T01:04:37.577Z,101306.69
2023-05-06T01:07:05.058Z,101295.78
2023-05-06T01:09:47.416Z,101293.91
2023-05-06T01:12:23.774Z,101293.38
2023-05-06T01:15:22.271Z,101302.59
2023-05-06T01:17:53.644Z,101295.97
2023-05-06T01:20:22.100Z,101287.94
2023-05-06T01:22:50.922Z,101294.28
2023-05-06T01:25:20.657Z,101295.03
2023-05-06T01:27:48.991Z,101296.34
2023-05-06T01:30:18.442Z,101301.47
2023-05-06T01:33:11.710Z,101293.63
2023-05-06T01:36:06.799Z,101291.94
2023-05-06T01:38:42.445Z,101295.28
2023-05-06T01:41:15.082Z,101288.91
2023-05-06T01:43:45.537Z,101290.00
2023-05-06T01:46:18.008Z,101293.50
2023-05-06T01:48:55.328Z,101297.88
2023-05-06T01:51:23.145Z,101287.72
2023-05-06T01:53:50.624Z,101287.16
2023-05-06T01:56:18.166Z,101288.97
2023-05-06T01:58:45.623Z,101294.97
2023-05-06T02:01:12.954Z,101287.34
2023-05-06T02:03:40.798Z,101288.59
2023-05-06T02:06:08.200Z,101284.66
2023-05-06T02:08:35.855Z,101285.25
2023-05-06T02:11:03.245Z,101291.38
2023-05-06T02:13:31.303Z,101304.09
2023-05-06T02:15:58.741Z,101301.66
2023-05-06T02:18:26.176Z,101302.72
2023-05-06T02:20:53.556Z,101312.59
2023-05-06T02:23:20.988Z,101306.09
2023-05-06T02:25:48.407Z,101310.06
2023-05-06T02:28:15.992Z,101315.25
2023-05-06T02:30:43.522Z,101319.72
2023-05-06T02:33:11.042Z,101324.72
2023-05-06T02:35:38.538Z,101328.56
2023-05-06T02:38:05.952Z,101337.44
2023-05-06T02:40:34.149Z,101327.97
2023-05-06T02:43:01.958Z,101335.44
2023-05-06T02:45:29.741Z,101341.06
2023-05-06T02:47:57.157Z,101334.75
2023-05-06T02:50:24.646Z,101341.91
2023-05-06T02:52:52.007Z,101337.66
2023-05-06T02:55:19.631Z,101351.16
2023-05-06T02:57:47.020Z,101344.91
2023-05-06T03:00:15.596Z,101344.28
2023-05-06T03:02:43.217Z,101363.13
2023-05-06T03:05:10.816Z,101353.75
2023-05-06T03:07:38.848Z,101356.41
2023-05-06T03:10:07.479Z,101362.13
2023-05-06T03:12:39.061Z,101371.16
2023-05-06T03:15:07.352Z,101370.56
2023-05-06T03:17:36.171Z,101371.53
2023-05-06T03:20:05.740Z,101375.88
2023-05-06T03:22:33.841Z,101374.75
2023-05-06T03:25:01.279Z,101375.25
2023-05-06T03:27:28.641Z,101377.22
2023-05-06T03:29:56.044Z,101375.88
2023-05-06T03:32:23.408Z,101384.03
2023-05-06T03:34:51.040Z,101382.19
2023-05-06T03:37:18.906Z,101382.31
2023-05-06T03:39:46.248Z,101386.03
2023-05-06T03:42:14.032Z,101386.31
2023-05-06T03:44:41.392Z,101394.38
2023-05-06T03:47:08.789Z,101394.75
2023-05-06T03:49:36.880Z,101400.66
2023-05-06T03:52:05.051Z,101410.56
2023-05-06T03:54:32.450Z,101404.81
2023-05-06T03:56:59.881Z,101404.47
2023-05-06T03:59:27.226Z,101407.34
2023-05-06T04:01:54.728Z,101417.28
2023-05-06T04:04:22.165Z,101417.28
2023-05-06T04:06:49.459Z,101420.31
2023-05-06T04:09:16.973Z,101415.59
2023-05-06T04:11:44.495Z,101417.66
2023-05-06T04:14:11.932Z,101421.31
2023-05-06T04:16:39.464Z,101424.88
2023-05-06T04:19:07.096Z,101431.19
2023-05-06T04:21:34.801Z,101431.94
2023-05-06T04:24:02.613Z,101435.00
2023-05-06T04:26:31.515Z,101434.13
2023-05-06T04:28:58.870Z,101434.97
2023-05-06T04:31:27.959Z,101437.25
2023-05-06T04:33:55.431Z,101440.13
2023-05-06T04:36:23.921Z,101447.34
2023-05-06T04:38:52.836Z,101451.75
2023-05-06T04:41:20.692Z,101455.22
2023-05-06T04:43:48.271Z,101457.16
2023-05-06T04:46:15.636Z,101461.28
2023-05-06T04:48:43.171Z,101453.19
2023-05-06T04:51:10.677Z,101457.88
2023-05-06T04:53:38.044Z,101461.34
2023-05-06T04:56:05.578Z,101457.31
2023-05-06T04:58:33.755Z,101453.28
2023-05-06T05:01:05.834Z,101459.22
2023-05-06T05:03:33.836Z,101460.16
2023-05-06T05:06:01.352Z,101460.00
2023-05-06T05:08:28.751Z,101463.66
2023-05-06T05:10:56.211Z,101464.22
2023-05-06T05:13:23.939Z,101459.66
2023-05-06T05:15:55.018Z,101473.09
2023-05-06T05:18:22.536Z,101470.84
2023-05-06T05:20:50.024Z,101480.44
2023-05-06T05:23:17.484Z,101481.53
2023-05-06T05:25:44.822Z,101483.84
2023-05-06T05:28:12.408Z,101481.13
2023-05-06T05:30:39.975Z,101477.03
2023-05-06T05:33:07.510Z,101480.88
2023-05-06T05:35:35.031Z,101479.19
2023-05-06T05:38:02.411Z,101476.59
2023-05-06T05:40:29.926Z,101479.06
2023-05-06T05:42:57.268Z,101477.25
2023-05-06T05:45:24.675Z,101476.25
2023-05-06T05:47:53.888Z,101481.38
2023-05-06T05:50:21.492Z,101477.00
2023-05-06T05:52:49.416Z,101482.72
2023-05-06T05:55:16.879Z,101479.69
2023-05-06T05:57:44.273Z,101474.25
2023-05-06T06:00:13.565Z,101478.94
2023-05-06T06:02:41.361Z,101466.34
2023-05-06T06:05:09.308Z,101476.53
2023-05-06T06:07:37.123Z,101480.53
2023-05-06T06:10:05.019Z,101474.41
2023-05-06T06:12:32.747Z,101482.41
2023-05-06T06:15:00.172Z,101478.28
2023-05-06T06:17:27.573Z,101474.91
2023-05-06T06:19:57.312Z,101484.72
2023-05-06T06:22:24.708Z,101487.00
2023-05-06T06:24:53.886Z,101476.03
2023-05-06T06:27:21.238Z,101481.63
2023-05-06T06:29:51.422Z,101473.25
2023-05-06T06:32:19.677Z,101485.19
2023-05-06T06:34:47.205Z,101490.94
2023-05-06T06:37:14.585Z,101487.06
2023-05-06T06:39:42.029Z,101485.91
2023-05-06T06:42:10.028Z,101488.53
2023-05-06T06:44:37.585Z,101489.06
2023-05-06T06:47:05.192Z,101499.75
2023-05-06T06:49:32.634Z,101505.88
2023-05-06T06:51:59.949Z,101509.44
2023-05-06T06:54:27.319Z,101519.13
2023-05-06T06:56:56.248Z,101516.69
2023-05-06T06:59:23.759Z,101518.19
2023-05-06T07:01:51.224Z,101512.81
2023-05-06T07:04:18.770Z,101516.22
2023-05-06T07:06:46.511Z,101519.34
2023-05-06T07:09:13.898Z,101519.59
2023-05-06T07:11:41.333Z,101522.31
2023-05-06T07:14:08.970Z,101524.19
2023-05-06T07:16:36.425Z,101515.63
2023-05-06T07:19:03.950Z,101523.97
2023-05-06T07:21:34.720Z,101526.13
2023-05-06T07:24:02.119Z,101531.94
2023-05-06T07:26:29.583Z,101529.88
2023-05-06T07:28:57.159Z,101534.47
2023-05-06T07:31:24.641Z,101531.53
2023-05-06T07:33:52.061Z,101538.22
2023-05-06T07:36:19.461Z,101528.56
2023-05-06T07:38:46.870Z,101535.66
2023-05-06T07:41:14.188Z,101531.50
2023-05-06T07:43:41.861Z,101536.91
2023-05-06T07:46:09.273Z,101530.94
2023-05-06T07:48:36.751Z,101539.78
2023-05-06T07:51:04.385Z,101544.25
2023-05-06T07:53:31.908Z,101545.44
2023-05-06T07:56:02.280Z,101551.03
2023-05-06T07:58:31.315Z,101538.44
2023-05-06T08:00:59.159Z,101551.25
2023-05-06T08:03:26.707Z,101555.81
2023-05-06T08:05:55.370Z,101554.03
2023-05-06T08:08:24.037Z,101555.72
2023-05-06T08:10:51.532Z,101557.47
2023-05-06T08:13:18.968Z,101551.41
2023-05-06T08:15:46.478Z,101552.16
2023-05-06T08:18:21.683Z,101556.91
2023-05-06T08:20:50.293Z,101554.81
2023-05-06T08:23:17.615Z,101544.66
2023-05-06T08:25:45.172Z,101557.66
2023-05-06T08:28:12.691Z,101554.81
2023-05-06T08:30:40.054Z,101564.78
2023-05-06T08:33:07.408Z,101556.53
2023-05-06T08:35:34.917Z,101569.13
2023-05-06T08:38:02.574Z,101563.56
2023-05-06T08:40:33.745Z,101549.88
2023-05-06T08:43:04.255Z,101568.34
2023-05-06T08:45:33.117Z,101562.53
2023-05-06T08:48:00.758Z,101561.28
2023-05-06T08:50:28.642Z,101561.69
2023-05-06T08:52:56.262Z,101567.66
2023-05-06T08:55:26.618Z,101563.94
2023-05-06T08:57:55.881Z,101564.16
2023-05-06T09:00:23.364Z,101562.84
2023-05-06T09:02:50.782Z,101569.72
2023-05-06T09:05:18.282Z,101563.97
2023-05-06T09:07:45.856Z,101566.78
2023-05-06T09:10:14.775Z,101564.28
2023-05-06T09:12:42.256Z,101557.13
2023-05-06T09:15:10.404Z,101559.50
2023-05-06T09:17:38.703Z,101564.19
2023-05-06T09:20:09.484Z,101567.03
2023-05-06T09:22:40.249Z,101568.94
2023-05-06T09:25:08.151Z,101557.69
2023-05-06T09:27:36.918Z,101562.31
2023-05-06T09:30:07.042Z,101558.31
2023-05-06T09:32:38.295Z,101556.59
2023-05-06T09:35:09.537Z,101553.13
2023-05-06T09:37:37.488Z,101545.38
2023-05-06T09:40:06.100Z,101559.81
2023-05-06T09:42:34.670Z,101553.34
2023-05-06T09:45:02.627Z,101545.44
2023-05-06T09:47:35.311Z,101530.59
2023-05-06T09:50:03.984Z,101535.78
2023-05-06T09:52:32.533Z,101538.00
2023-05-06T09:55:01.573Z,101534.66
2023-05-06T09:57:31.146Z,101530.97
2023-05-06T10:00:01.492Z,101535.25
2023-05-06T10:02:29.453Z,101531.09
2023-05-06T10:04:58.927Z,101533.34
2023-05-06T10:07:28.958Z,101532.16
2023-05-06T10:09:59.144Z,101539.34
2023-05-06T10:12:26.555Z,101534.00
2023-05-06T10:14:54.198Z,101545.31
2023-05-06T10:17:25.627Z,101533.50
2023-05-06T10:19:58.984Z,101536.81
2023-05-06T10:22:27.173Z,101536.09
2023-05-06T10:25:12.574Z,101529.25
2023-05-06T10:27:42.060Z,101529.00
2023-05-06T10:30:11.611Z,101529.31
2023-05-06T10:32:43.227Z,101524.41
2023-05-06T10:35:19.665Z,101517.41
2023-05-06T10:37:49.173Z,101535.19
2023-05-06T10:40:17.073Z,101525.00
2023-05-06T10:42:44.554Z,101512.44
2023-05-06T10:45:12.278Z,101525.81
2023-05-06T10:48:02.744Z,101515.50
2023-05-06T10:50:30.363Z,101513.09
2023-05-06T10:53:01.801Z,101516.56
2023-05-06T10:55:33.968Z,101520.00
2023-05-06T10:58:15.226Z,101521.66
2023-05-06T11:00:52.898Z,101529.59
2023-05-06T11:03:23.879Z,101522.25
2023-05-06T11:05:52.538Z,101516.03
2023-05-06T11:08:25.672Z,101520.84
2023-05-06T11:10:54.345Z,101511.53
2023-05-06T11:13:24.815Z,101518.78
2023-05-06T11:15:53.072Z,101519.66
2023-05-06T11:18:34.798Z,101514.94
2023-05-06T11:21:04.969Z,101516.34
2023-05-06T11:23:49.494Z,101528.41
2023-05-06T11:26:17.033Z,101514.94
2023-05-06T11:28:50.577Z,101518.25
2023-05-06T11:31:18.422Z,101519.41
2023-05-06T11:33:48.058Z,101504.78
2023-05-06T11:36:17.874Z,101500.03
2023-05-06T11:38:49.965Z,101508.50
2023-05-06T11:41:18.410Z,101504.19
2023-05-06T11:43:50.401Z,101497.03
2023-05-06T11:46:24.092Z,101497.16
2023-05-06T11:48:51.580Z,101487.19
2023-05-06T11:51:25.933Z,101493.25
2023-05-06T11:54:05.165Z,101494.25
2023-05-06T11:56:46.614Z,101492.00
2023-05-06T11:59:14.262Z,101498.72
2023-05-06T12:01:43.143Z,101497.94
2023-05-06T12:04:11.531Z,101489.81
2023-05-06T12:06:40.206Z,101498.94
2023-05-06T12:09:11.858Z,101502.66
2023-05-06T12:11:42.074Z,101501.31
2023-05-06T12:14:11.616Z,101504.19
2023-05-06T12:16:39.393Z,101500.00
2023-05-06T12:19:07.005Z,101504.13
2023-05-06T12:21:38.232Z,101502.13
2023-05-06T12:24:06.052Z,101495.19
2023-05-06T12:26:49.798Z,101500.56
2023-05-06T12:29:17.694Z,101488.47
2023-05-06T12:31:47.336Z,101498.97
2023-05-06T12:34:18.008Z,101485.47
2023-05-06T12:36:47.362Z,101495.50
2023-05-06T12:39:14.989Z,101491.75
2023-05-06T12:41:45.634Z,101498.72
2023-05-06T12:44:32.659Z,101498.28
2023-05-06T12:47:08.102Z,101484.13
2023-05-06T12:49:51.183Z,101494.38
2023-05-06T12:52:21.764Z,101489.56
2023-05-06T12:54:50.148Z,101494.03
2023-05-06T12:57:17.503Z,101508.69
2023-05-06T12:59:46.125Z,101505.41
2023-05-06T13:02:14.214Z,101501.69
2023-05-06T13:04:42.319Z,101502.94
2023-05-06T13:07:09.728Z,101501.97
2023-05-06T13:09:37.785Z,101494.19
2023-05-06T13:12:05.670Z,101495.78
2023-05-06T13:14:48.469Z,101498.66
2023-05-06T13:17:16.145Z,101498.28
2023-05-06T13:19:43.502Z,101498.13
2023-05-06T13:22:10.885Z,101498.91
2023-05-06T13:24:39.363Z,101509.22
2023-05-06T13:27:06.733Z,101505.13
2023-05-06T13:29:34.576Z,101497.13
2023-05-06T13:32:02.150Z,101509.56
2023-05-06T13:34:29.981Z,101502.56
2023-05-06T13:36:58.707Z,101506.47
2023-05-06T13:39:26.245Z,101503.75
2023-05-06T13:41:54.283Z,101506.50
2023-05-06T13:44:22.494Z,101506.56
2023-05-06T13:46:50.284Z,101504.06
2023-05-06T13:49:19.657Z,101503.53
2023-05-06T13:51:47.009Z,101508.75
2023-05-06T13:54:14.498Z,101521.63
2023-05-06T13:56:42.125Z,101510.31
2023-05-06T13:59:11.814Z,101510.53
2023-05-06T14:01:40.576Z,101506.50
2023-05-06T14:04:08.221Z,101509.50
2023-05-06T14:06:35.825Z,101509.84
2023-05-06T14:09:04.721Z,101500.81
2023-05-06T14:11:32.358Z,101504.81
2023-05-06T14:14:00.423Z,101503.41
2023-05-06T14:16:27.828Z,101512.25
2023-05-06T14:18:55.224Z,101502.31
2023-05-06T14:21:22.837Z,101508.63
2023-05-06T14:23:50.185Z,101523.44
2023-05-06T14:26:17.744Z,101513.31
2023-05-06T14:28:45.755Z,101519.06
2023-05-06T14:31:13.252Z,101517.22
2023-05-06T14:33:40.797Z,101514.50
2023-05-06T14:36:08.432Z,101517.91
2023-05-06T14:38:36.027Z,101514.25
2023-05-06T14:41:03.387Z,101517.94
2023-05-06T14:43:31.300Z,101519.13
2023-05-06T14:45:58.722Z,101526.47
2023-05-06T14:48:26.227Z,101514.91
2023-05-06T14:50:53.658Z,101514.19
2023-05-06T14:53:21.244Z,101517.66
2023-05-06T14:55:49.042Z,101507.47
2023-05-06T14:58:16.444Z,101504.09
2023-05-06T15:00:44.835Z,101505.03
2023-05-06T15:03:12.255Z,101508.94
2023-05-06T15:05:39.822Z,101510.00
2023-05-06T15:08:07.444Z,101513.31
2023-05-06T15:10:35.138Z,101510.56
2023-05-06T15:13:02.713Z,101503.81
2023-05-06T15:15:30.471Z,101512.50
2023-05-06T15:17:57.925Z,101505.25
2023-05-06T15:20:25.318Z,101508.41
2023-05-06T15:22:52.738Z,101512.81
2023-05-06T15:25:33.308Z,101513.97
2023-05-06T15:28:02.182Z,101509.34
2023-05-06T15:30:29.927Z,101506.19
2023-05-06T15:32:57.417Z,101514.72
2023-05-06T15:35:24.799Z,101514.38
2023-05-06T15:37:58.542Z,101516.91
2023-05-06T15:40:27.052Z,101501.56
2023-05-06T15:42:54.471Z,101515.75
2023-05-06T15:45:22.373Z,101507.03
2023-05-06T15:47:49.874Z,101513.31
2023-05-06T15:50:31.986Z,101516.38
2023-05-06T15:53:02.235Z,101514.81
2023-05-06T15:55:35.080Z,101523.81
2023-05-06T15:58:08.760Z,101524.03
2023-05-06T16:00:36.109Z,101514.19
2023-05-06T16:03:03.827Z,101515.91
2023-05-06T16:05:31.961Z,101509.84
2023-05-06T16:07:59.784Z,101521.84
2023-05-06T16:10:27.238Z,101513.47
2023-05-06T16:12:54.760Z,101511.56
2023-05-06T16:15:22.149Z,101519.72
2023-05-06T16:17:49.588Z,101515.56
2023-05-06T16:20:17.045Z,101523.50
2023-05-06T16:22:50.546Z,101534.78
2023-05-06T16:25:17.937Z,101524.81
2023-05-06T16:27:45.584Z,101537.75
2023-05-06T16:30:13.395Z,101524.59
2023-05-06T16:32:41.470Z,101535.94
2023-05-06T16:35:09.605Z,101526.50
2023-05-06T16:37:37.335Z,101526.53
2023-05-06T16:40:05.072Z,101532.00
2023-05-06T16:42:33.713Z,101541.19
2023-05-06T16:45:01.074Z,101534.66
2023-05-06T16:47:28.541Z,101540.31
2023-05-06T16:49:56.014Z,101553.28
2023-05-06T16:52:23.499Z,101551.59
2023-05-06T16:54:53.579Z,101548.69
2023-05-06T16:57:21.250Z,101549.28
2023-05-06T16:59:48.582Z,101556.19
2023-05-06T17:02:15.955Z,101551.56
2023-05-06T17:04:43.412Z,101554.47
2023-05-06T17:07:11.435Z,101559.28
2023-05-06T17:09:39.222Z,101554.66
2023-05-06T17:12:07.578Z,101557.13
2023-05-06T17:14:35.834Z,101553.53
2023-05-06T17:17:05.381Z,101555.84
2023-05-06T17:19:33.728Z,101557.66
2023-05-06T17:22:01.051Z,101560.00
2023-05-06T17:24:28.488Z,101565.59
2023-05-06T17:26:55.903Z,101573.91
2023-05-06T17:29:23.249Z,101576.53
2023-05-06T17:31:50.730Z,101584.03
2023-05-06T17:34:18.287Z,101589.66
2023-05-06T17:36:45.776Z,101595.31
2023-05-06T17:39:13.272Z,101592.00
2023-05-06T17:41:40.907Z,101603.63
2023-05-06T17:44:08.286Z,101613.25
2023-05-06T17:46:35.724Z,101620.94
2023-05-06T17:49:03.368Z,101614.13
2023-05-06T17:51:31.577Z,101622.75
2023-05-06T17:53:59.056Z,101630.81
2023-05-06T17:56:26.629Z,101635.38
2023-05-06T17:58:54.064Z,101639.50
2023-05-06T18:01:21.407Z,101638.19
2023-05-06T18:03:49.010Z,101644.81
2023-05-06T18:06:16.787Z,101646.13
2023-05-06T18:08:44.997Z,101645.69
2023-05-06T18:11:12.378Z,101660.72
2023-05-06T18:13:40.151Z,101668.19
2023-05-06T18:16:07.794Z,101672.94
2023-05-06T18:18:35.198Z,101685.47
2023-05-06T18:21:02.603Z,101685.28
2023-05-06T18:23:30.479Z,101696.53
2023-05-06T18:25:57.977Z,101700.50
2023-05-06T18:28:25.587Z,101707.16
2023-05-06T18:30:52.979Z,101709.66
2023-05-06T18:33:20.506Z,101712.31
2023-05-06T18:35:47.902Z,101704.50
2023-05-06T18:38:15.685Z,101712.13
2023-05-06T18:40:43.864Z,101714.56
2023-05-06T18:43:11.330Z,101713.53
2023-05-06T18:45:38.946Z,101714.00
2023-05-06T18:48:06.410Z,101714.00
2023-05-06T18:50:35.892Z,101718.84
2023-05-06T18:53:03.632Z,101724.50
2023-05-06T18:55:31.960Z,101725.22
2023-05-06T18:57:59.366Z,101721.44
2023-05-06T19:00:28.274Z,101734.50
2023-05-06T19:02:55.838Z,101723.97
2023-05-06T19:05:23.332Z,101732.63
2023-05-06T19:07:51.198Z,101734.47
2023-05-06T19:10:18.660Z,101743.84
2023-05-06T19:12:46.347Z,101735.66
2023-05-06T19:15:14.158Z,101741.06
2023-05-06T19:17:41.933Z,101740.97
2023-05-06T19:20:10.664Z,101737.09
2023-05-06T19:22:38.261Z,101736.25
2023-05-06T19:25:06.081Z,101734.69
2023-05-06T19:27:33.532Z,101724.41
2023-05-06T19:30:00.845Z,101733.38
2023-05-06T19:32:28.593Z,101721.00
2023-05-06T19:34:55.942Z,101723.28
2023-05-06T19:37:23.402Z,101734.09
2023-05-06T19:39:50.827Z,101730.84
2023-05-06T19:42:18.264Z,101722.38
2023-05-06T19:44:48.048Z,101726.50
2023-05-06T19:47:15.627Z,101731.97
2023-05-06T19:49:42.987Z,101719.78
2023-05-06T19:52:10.622Z,101716.47
2023-05-06T19:54:37.997Z,101725.19
2023-05-06T19:57:05.720Z,101714.41
2023-05-06T19:59:33.100Z,101712.72
2023-05-06T20:02:01.878Z,101722.56
2023-05-06T20:04:29.505Z,101721.59
2023-05-06T20:06:57.943Z,101719.63
2023-05-06T20:09:25.356Z,101716.59
2023-05-06T20:11:52.820Z,101698.41
2023-05-06T20:14:20.188Z,101703.16
2023-05-06T20:16:47.716Z,101710.56
2023-05-06T20:19:15.240Z,101713.78
2023-05-06T20:21:42.559Z,101715.31
2023-05-06T20:24:09.974Z,101716.66
2023-05-06T20:26:37.340Z,101731.53
2023-05-06T20:29:04.958Z,101730.22
2023-05-06T20:31:33.199Z,101737.66
2023-05-06T20:34:00.855Z,101730.22
2023-05-06T20:36:28.414Z,101733.09
2023-05-06T20:38:55.849Z,101731.91
2023-05-06T20:41:23.262Z,101733.63
2023-05-06T20:43:52.929Z,101733.28
2023-05-06T20:46:20.752Z,101734.47
2023-05-06T20:48:48.368Z,101734.63
2023-05-06T20:51:16.164Z,101734.63
2023-05-06T20:53:43.818Z,101729.75
2023-05-06T20:56:23.223Z,101729.06
2023-05-06T20:58:52.059Z,101740.34
2023-05-06T21:01:20.797Z,101743.22
2023-05-06T21:03:49.213Z,101753.50
2023-05-06T21:06:18.010Z,101752.81
2023-05-06T21:08:46.444Z,101750.44
2023-05-06T21:11:14.316Z,101750.59
2023-05-06T21:13:42.059Z,101756.47
2023-05-06T21:16:09.622Z,101759.50
2023-05-06T21:18:37.363Z,101758.16
2023-05-06T21:21:04.832Z,101744.97
2023-05-06T21:23:32.956Z,101753.00
2023-05-06T21:26:00.490Z,101759.44
2023-05-06T21:28:28.026Z,101758.50
2023-05-06T21:30:56.010Z,101753.69
2023-05-06T21:33:23.459Z,101749.13
2023-05-06T21:35:50.999Z,101755.31
2023-05-06T21:38:18.682Z,101754.69
2023-05-06T21:40:46.218Z,101752.34
2023-05-06T21:43:15.952Z,101757.00
2023-05-06T21:45:44.093Z,101743.38
2023-05-06T21:48:11.808Z,101758.38
2023-05-06T21:50:39.299Z,101764.38
2023-05-06T21:53:06.685Z,101774.09
2023-05-06T21:55:34.146Z,101757.59
2023-05-06T21:58:01.606Z,101760.31
2023-05-06T22:00:29.756Z,101763.53
2023-05-06T22:02:57.388Z,101762.22
2023-05-06T22:05:24.913Z,101767.22
2023-05-06T22:07:52.414Z,101774.91
2023-05-06T22:10:20.101Z,101781.91
2023-05-06T22:12:47.584Z,101783.59
2023-05-06T22:15:15.364Z,101793.75
2023-05-06T22:17:43.066Z,101784.53
2023-05-06T22:20:11.164Z,101791.97
2023-05-06T22:22:38.650Z,101793.81
2023-05-06T22:25:06.885Z,101793.00
2023-05-06T22:27:34.389Z,101796.06
2023-05-06T22:30:01.845Z,101800.94
2023-05-06T22:32:30.082Z,101801.91
2023-05-06T22:34:57.612Z,101805.59
2023-05-06T22:37:24.957Z,101795.91
2023-05-06T22:39:53.423Z,101790.75
2023-05-06T22:42:21.109Z,101802.22
2023-05-06T22:44:48.442Z,101795.53
2023-05-06T22:47:16.603Z,101799.53
2023-05-06T22:49:43.956Z,101805.75
2023-05-06T22:52:13.100Z,101802.91
2023-05-06T22:54:40.568Z,101804.31
2023-05-06T22:57:08.018Z,101800.06
2023-05-06T22:59:35.552Z,101783.72
2023-05-06T23:02:03.848Z,101795.84
2023-05-06T23:04:31.390Z,101795.47
2023-05-06T23:06:58.789Z,101795.69
2023-05-06T23:09:26.141Z,101793.16
2023-05-06T23:11:53.474Z,101801.47
2023-05-06T23:14:20.945Z,101789.16
2023-05-06T23:16:48.312Z,101784.78
2023-05-06T23:19:15.868Z,101784.31
2023-05-06T23:21:44.006Z,101773.88
2023-05-06T23:24:12.065Z,101780.19
2023-05-06T23:26:39.563Z,101774.88
2023-05-06T23:29:07.098Z,101775.66
2023-05-06T23:31:35.115Z,101774.94
2023-05-06T23:34:02.751Z,101768.88
2023-05-06T23:36:30.246Z,101769.28
2023-05-06T23:38:57.643Z,101767.88
2023-05-06T23:41:25.245Z,101775.50
2023-05-06T23:43:52.643Z,101776.84
2023-05-06T23:46:20.196Z,101770.28
2023-05-06T23:48:47.751Z,101773.72
2023-05-06T23:51:15.151Z,101776.41
2023-05-06T23:53:42.510Z,101783.47
2023-05-06T23:56:09.913Z,101783.34
2023-05-06T23:58:37.333Z,101785.53
